createdAt,value
2018-10-17T00:00:51.661Z,25.75
2018-10-17T00:01:54.879Z,26.50
2018-10-17T00:02:57.739Z,26.25
2018-10-17T00:04:00.824Z,22.50
2018-10-17T00:05:03.983Z,24.50
2018-10-17T00:06:07.861Z,26.25
2018-10-17T00:07:11.196Z,26.25
2018-10-17T00:08:14.554Z,24.50
2018-10-17T00:09:17.215Z,29.75
2018-10-17T00:10:20.265Z,28.50
2018-10-17T00:11:23.026Z,23.75
2018-10-17T00:13:27.555Z,28.25
2018-10-17T00:14:30.718Z,27.25
2018-10-17T00:15:34.109Z,25.50
2018-10-17T00:16:36.965Z,24.50
2018-10-17T00:17:39.710Z,24.25
2018-10-17T00:18:43.547Z,26.50
2018-10-17T00:19:47.943Z,28.25
2018-10-17T00:20:50.939Z,30.75
2018-10-17T00:21:54.690Z,26.50
2018-10-17T00:22:59.685Z,27.50
2018-10-17T00:24:02.806Z,31.25
2018-10-17T00:25:05.672Z,27.00
2018-10-17T00:26:08.673Z,26.75
2018-10-17T00:27:11.624Z,25.75
2018-10-17T00:28:14.457Z,25.00
2018-10-17T00:29:17.882Z,22.25
2018-10-17T00:30:22.060Z,27.75
2018-10-17T00:31:25.146Z,30.50
2018-10-17T00:32:28.096Z,28.00
2018-10-17T00:33:31.505Z,29.00
2018-10-17T00:34:34.398Z,25.25
2018-10-17T00:35:38.212Z,29.75
2018-10-17T00:36:40.850Z,24.25
2018-10-17T00:37:43.964Z,24.75
2018-10-17T00:38:46.957Z,28.00
2018-10-17T00:39:50.089Z,26.75
2018-10-17T00:40:53.373Z,28.25
2018-10-17T00:41:56.017Z,22.25
2018-10-17T00:42:58.676Z,34.25
2018-10-17T00:44:01.700Z,24.75
2018-10-17T00:45:05.829Z,25.25
2018-10-17T00:46:09.158Z,29.50
2018-10-17T00:47:12.894Z,26.75
2018-10-17T00:48:15.645Z,29.75
2018-10-17T00:49:18.329Z,28.50
2018-10-17T00:50:21.290Z,27.50
2018-10-17T00:51:24.197Z,28.00
2018-10-17T00:52:29.274Z,27.25
2018-10-17T00:53:32.277Z,25.00
2018-10-17T00:54:35.640Z,31.75
2018-10-17T00:55:38.424Z,30.50
2018-10-17T00:56:41.985Z,28.25
2018-10-17T00:57:44.907Z,33.50
2018-10-17T00:58:48.781Z,30.00
2018-10-17T00:59:51.428Z,27.00
2018-10-17T01:00:54.379Z,33.50
2018-10-17T01:01:57.659Z,27.25
2018-10-17T01:03:00.505Z,24.25
2018-10-17T01:04:04.507Z,25.00
2018-10-17T01:05:08.844Z,25.50
2018-10-17T01:06:11.548Z,27.50
2018-10-17T01:07:14.248Z,23.75
2018-10-17T01:08:18.772Z,29.75
2018-10-17T01:09:21.841Z,28.00
2018-10-17T01:10:25.040Z,29.00
2018-10-17T01:11:28.076Z,26.00
2018-10-17T01:12:31.565Z,26.50
2018-10-17T01:13:34.320Z,28.00
2018-10-17T01:14:37.042Z,25.25
2018-10-17T01:15:39.722Z,26.25
2018-10-17T01:16:42.405Z,23.25
2018-10-17T01:17:45.426Z,22.00
2018-10-17T01:18:49.398Z,24.50
2018-10-17T01:19:52.081Z,27.25
2018-10-17T01:20:55.024Z,26.50
2018-10-17T01:21:57.671Z,22.25
2018-10-17T01:23:01.619Z,22.50
2018-10-17T01:24:05.349Z,23.75
2018-10-17T01:25:10.217Z,26.00
2018-10-17T01:26:13.644Z,23.25
2018-10-17T01:27:16.315Z,22.00
2018-10-17T01:28:19.041Z,20.50
2018-10-17T01:29:21.703Z,22.00
2018-10-17T01:30:25.324Z,24.50
2018-10-17T01:31:28.427Z,26.00
2018-10-17T01:32:31.274Z,22.00
2018-10-17T01:33:34.201Z,27.75
2018-10-17T01:34:37.859Z,19.25
2018-10-17T01:35:40.752Z,25.25
2018-10-17T01:36:46.688Z,22.75
2018-10-17T01:37:49.601Z,23.75
2018-10-17T01:38:52.893Z,22.50
2018-10-17T01:39:55.576Z,19.75
2018-10-17T01:40:58.917Z,21.25
2018-10-17T01:42:01.884Z,28.25
2018-10-17T01:43:05.784Z,24.50
2018-10-17T01:44:08.969Z,28.00
2018-10-17T01:45:12.096Z,30.00
2018-10-17T01:46:15.235Z,30.50
2018-10-17T01:47:17.932Z,30.25
2018-10-17T01:48:20.603Z,28.00
2018-10-17T01:49:24.830Z,24.75
2018-10-17T01:50:27.802Z,26.50
2018-10-17T01:51:30.481Z,22.00
2018-10-17T01:52:33.144Z,24.25
2018-10-17T01:53:35.854Z,21.75
2018-10-17T01:54:38.515Z,24.25
2018-10-17T01:55:42.020Z,27.50
2018-10-17T01:56:44.684Z,22.50
2018-10-17T01:57:47.340Z,25.00
2018-10-17T01:58:49.985Z,22.50
2018-10-17T01:59:53.450Z,25.75
2018-10-17T02:00:56.197Z,23.50
2018-10-17T02:01:59.244Z,24.50
2018-10-17T02:03:02.223Z,22.25
2018-10-17T02:04:04.856Z,21.25
2018-10-17T02:05:07.976Z,22.25
2018-10-17T02:06:10.628Z,18.25
2018-10-17T02:07:13.315Z,23.75
2018-10-17T02:08:16.453Z,24.75
2018-10-17T02:09:20.284Z,21.00
2018-10-17T02:10:22.942Z,20.75
2018-10-17T02:11:25.861Z,23.25
2018-10-17T02:12:28.531Z,27.75
2018-10-17T02:13:33.318Z,22.50
2018-10-17T02:14:36.393Z,19.00
2018-10-17T02:15:39.106Z,22.25
2018-10-17T02:16:41.782Z,24.75
2018-10-17T02:17:44.424Z,21.50
2018-10-17T02:18:47.100Z,19.25
2018-10-17T02:19:49.773Z,24.25
2018-10-17T02:20:52.800Z,23.75
2018-10-17T02:21:55.488Z,21.25
2018-10-17T02:22:58.134Z,19.00
2018-10-17T02:24:00.825Z,21.00
2018-10-17T02:25:03.543Z,24.00
2018-10-17T02:26:06.190Z,22.25
2018-10-17T02:27:09.199Z,23.50
2018-10-17T02:28:11.882Z,19.25
2018-10-17T02:29:14.604Z,28.25
2018-10-17T02:30:17.246Z,24.75
2018-10-17T02:31:20.077Z,21.50
2018-10-17T02:32:22.632Z,23.25
2018-10-17T02:33:25.622Z,19.50
2018-10-17T02:34:28.300Z,21.25
2018-10-17T02:35:30.940Z,23.50
2018-10-17T02:36:33.618Z,20.50
2018-10-17T02:37:36.270Z,24.75
2018-10-17T02:38:38.932Z,19.75
2018-10-17T02:39:42.138Z,23.75
2018-10-17T02:40:44.782Z,23.25
2018-10-17T02:41:47.470Z,26.00
2018-10-17T02:42:50.150Z,26.50
2018-10-17T02:43:52.851Z,21.00
2018-10-17T02:44:55.545Z,24.00
2018-10-17T02:45:58.676Z,27.00
2018-10-17T02:47:01.417Z,20.50
2018-10-17T02:48:04.118Z,27.00
2018-10-17T02:49:06.871Z,22.75
2018-10-17T02:50:10.602Z,26.50
2018-10-17T02:51:13.294Z,27.00
2018-10-17T02:52:16.381Z,23.75
2018-10-17T02:53:19.233Z,22.75
2018-10-17T02:54:21.877Z,21.75
2018-10-17T02:55:24.585Z,22.50
2018-10-17T02:56:27.278Z,21.75
2018-10-17T02:57:29.952Z,21.25
2018-10-17T02:58:32.966Z,21.75
2018-10-17T02:59:35.803Z,22.75
2018-10-17T03:00:38.486Z,17.50
2018-10-17T03:01:41.248Z,22.25
2018-10-17T03:02:43.943Z,16.00
2018-10-17T03:03:46.634Z,19.75
2018-10-17T03:04:49.799Z,22.75
2018-10-17T03:05:52.503Z,18.75
2018-10-17T03:06:55.185Z,19.25
2018-10-17T03:07:57.920Z,24.50
2018-10-17T03:09:00.631Z,23.00
2018-10-17T03:10:03.338Z,20.00
2018-10-17T03:11:06.474Z,20.75
2018-10-17T03:12:09.154Z,17.00
2018-10-17T03:13:11.835Z,21.50
2018-10-17T03:14:14.500Z,25.75
2018-10-17T03:15:17.129Z,27.25
2018-10-17T03:16:19.786Z,23.00
2018-10-17T03:17:22.834Z,22.25
2018-10-17T03:18:25.489Z,23.00
2018-10-17T03:19:28.207Z,21.50
2018-10-17T03:20:30.889Z,20.00
2018-10-17T03:21:33.563Z,28.50
2018-10-17T03:22:36.262Z,20.00
2018-10-17T03:23:40.335Z,16.00
2018-10-17T03:24:43.021Z,17.25
2018-10-17T03:25:45.675Z,18.75
2018-10-17T03:26:48.329Z,18.50
2018-10-17T03:27:51.078Z,21.25
2018-10-17T03:28:53.725Z,18.25
2018-10-17T03:29:56.915Z,19.00
2018-10-17T03:30:59.572Z,18.75
2018-10-17T03:32:02.305Z,17.50
2018-10-17T03:33:04.965Z,21.00
2018-10-17T03:34:07.683Z,19.00
2018-10-17T03:35:10.518Z,17.25
2018-10-17T03:36:13.542Z,18.25
2018-10-17T03:37:16.269Z,17.75
2018-10-17T03:38:19.061Z,16.50
2018-10-17T03:39:21.742Z,23.50
2018-10-17T03:40:24.419Z,15.00
2018-10-17T03:41:27.078Z,23.50
2018-10-17T03:42:30.069Z,20.50
2018-10-17T03:43:33.562Z,18.00
2018-10-17T03:44:36.219Z,17.75
2018-10-17T03:45:38.898Z,17.75
2018-10-17T03:46:41.581Z,18.75
2018-10-17T03:47:44.233Z,14.50
2018-10-17T03:48:47.201Z,16.00
2018-10-17T03:49:49.934Z,17.25
2018-10-17T03:50:52.639Z,18.75
2018-10-17T03:51:55.284Z,14.50
2018-10-17T03:52:58.007Z,17.75
2018-10-17T03:54:00.688Z,22.25
2018-10-17T03:55:03.715Z,17.00
2018-10-17T03:56:06.417Z,20.25
2018-10-17T03:57:09.119Z,17.00
2018-10-17T03:58:11.852Z,15.00
2018-10-17T03:59:14.612Z,20.50
2018-10-17T04:00:17.309Z,19.75
2018-10-17T04:01:20.388Z,18.75
2018-10-17T04:02:23.034Z,23.00
2018-10-17T04:03:25.698Z,18.00
2018-10-17T04:04:28.375Z,18.25
2018-10-17T04:05:31.056Z,17.00
2018-10-17T04:06:33.738Z,20.75
2018-10-17T04:07:36.727Z,21.75
2018-10-17T04:08:39.386Z,23.00
2018-10-17T04:09:42.050Z,22.75
2018-10-17T04:10:44.716Z,28.50
2018-10-17T04:11:47.408Z,26.75
2018-10-17T04:12:50.074Z,20.75
2018-10-17T04:13:53.155Z,23.50
2018-10-17T04:14:55.832Z,24.50
2018-10-17T04:15:58.503Z,17.00
2018-10-17T04:17:01.162Z,25.25
2018-10-17T04:18:03.857Z,17.50
2018-10-17T04:19:06.563Z,27.50
2018-10-17T04:20:09.528Z,22.00
2018-10-17T04:21:12.219Z,24.50
2018-10-17T04:22:14.880Z,41.00
2018-10-17T04:23:17.637Z,45.50
2018-10-17T04:24:20.249Z,52.00
2018-10-17T04:25:24.535Z,46.25
2018-10-17T04:26:28.590Z,40.25
2018-10-17T04:27:32.057Z,37.25
2018-10-17T04:28:34.720Z,33.75
2018-10-17T04:29:38.049Z,28.50
2018-10-17T04:30:40.743Z,26.75
2018-10-17T04:31:43.421Z,22.25
2018-10-17T04:32:46.533Z,24.25
2018-10-17T04:33:49.200Z,27.75
2018-10-17T04:34:51.850Z,20.25
2018-10-17T04:35:54.571Z,21.50
2018-10-17T04:36:57.226Z,22.00
2018-10-17T04:38:00.060Z,17.25
2018-10-17T04:39:03.034Z,21.75
2018-10-17T04:40:05.732Z,19.75
2018-10-17T04:41:08.738Z,23.00
2018-10-17T04:42:11.374Z,20.00
2018-10-17T04:43:14.107Z,19.75
2018-10-17T04:44:16.752Z,21.75
2018-10-17T04:45:20.241Z,25.50
2018-10-17T04:46:22.886Z,26.50
2018-10-17T04:47:25.616Z,26.50
2018-10-17T04:48:28.347Z,23.75
2018-10-17T04:49:31.006Z,20.00
2018-10-17T04:50:33.653Z,25.75
2018-10-17T04:51:36.884Z,19.00
2018-10-17T04:52:39.870Z,25.00
2018-10-17T04:53:42.526Z,25.00
2018-10-17T04:54:45.195Z,22.25
2018-10-17T04:55:47.872Z,21.00
2018-10-17T04:56:50.872Z,20.00
2018-10-17T04:57:53.574Z,22.50
2018-10-17T04:58:56.410Z,19.00
2018-10-17T04:59:59.062Z,23.00
2018-10-17T05:01:02.461Z,22.50
2018-10-17T05:02:05.053Z,22.25
2018-10-17T05:03:08.576Z,20.50
2018-10-17T05:04:11.264Z,19.25
2018-10-17T05:05:14.219Z,22.25
2018-10-17T05:06:23.221Z,24.50
2018-10-17T05:07:27.635Z,22.00
2018-10-17T05:08:30.323Z,21.75
2018-10-17T05:09:33.278Z,20.75
2018-10-17T05:10:36.261Z,21.75
2018-10-17T05:11:39.346Z,24.25
2018-10-17T05:12:42.005Z,28.75
2018-10-17T05:13:44.713Z,26.00
2018-10-17T05:14:47.501Z,18.75
2018-10-17T05:15:50.472Z,18.50
2018-10-17T05:16:53.139Z,24.25
2018-10-17T05:17:55.862Z,22.00
2018-10-17T05:18:58.580Z,24.25
2018-10-17T05:20:02.730Z,19.25
2018-10-17T05:21:05.524Z,21.75
2018-10-17T05:22:08.865Z,18.25
2018-10-17T05:23:11.633Z,20.75
2018-10-17T05:24:14.272Z,22.25
2018-10-17T05:25:17.008Z,20.75
2018-10-17T05:26:19.772Z,22.00
2018-10-17T05:27:22.456Z,25.25
2018-10-17T05:28:25.992Z,23.50
2018-10-17T05:29:28.736Z,29.75
2018-10-17T05:44:00.128Z,26.50
2018-10-17T05:45:02.850Z,25.75
2018-10-17T05:46:05.541Z,21.50
2018-10-17T05:47:08.495Z,21.00
2018-10-17T05:48:11.329Z,25.00
2018-10-17T05:49:14.755Z,25.00
2018-10-17T05:50:17.441Z,24.00
2018-10-17T05:51:20.248Z,25.00
2018-10-17T05:52:23.114Z,25.50
2018-10-17T05:53:26.381Z,29.00
2018-10-17T05:54:29.133Z,32.25
2018-10-17T05:55:32.130Z,24.75
2018-10-17T05:56:34.851Z,28.25
2018-10-17T05:57:37.615Z,24.75
2018-10-17T05:58:40.389Z,28.50
2018-10-17T05:59:43.952Z,28.25
2018-10-17T06:00:46.618Z,30.00
2018-10-17T06:01:51.358Z,26.50
2018-10-17T06:02:54.018Z,22.25
2018-10-17T06:03:57.496Z,24.00
2018-10-17T06:05:00.559Z,24.00
2018-10-17T06:06:03.346Z,29.75
2018-10-17T06:07:06.762Z,25.50
2018-10-17T06:08:09.823Z,25.25
2018-10-17T06:09:13.250Z,26.00
2018-10-17T06:10:16.005Z,27.75
2018-10-17T06:11:18.649Z,21.00
2018-10-17T06:12:21.321Z,25.00
2018-10-17T06:13:23.988Z,23.50
2018-10-17T06:14:27.184Z,22.25
2018-10-17T06:15:29.952Z,26.00
2018-10-17T06:16:32.667Z,24.50
2018-10-17T06:17:36.962Z,27.75
2018-10-17T06:18:39.941Z,28.75
2018-10-17T06:19:42.678Z,22.75
2018-10-17T06:20:45.776Z,24.50
2018-10-17T06:21:48.452Z,31.00
2018-10-17T06:22:51.173Z,32.25
2018-10-17T06:23:57.116Z,32.50
2018-10-17T06:25:00.852Z,29.50
2018-10-17T06:26:03.846Z,34.00
2018-10-17T06:27:10.641Z,30.75
2018-10-17T06:28:13.572Z,28.75
2018-10-17T06:29:16.877Z,33.25
2018-10-17T06:30:19.586Z,33.25
2018-10-17T06:31:22.383Z,32.25
2018-10-17T06:32:26.039Z,39.00
2018-10-17T06:33:34.704Z,28.00
2018-10-17T06:34:37.456Z,35.75
2018-10-17T06:35:40.745Z,31.75
2018-10-17T06:36:43.450Z,36.25
2018-10-17T06:37:46.614Z,28.75
2018-10-17T06:38:49.307Z,40.50
2018-10-17T06:39:52.624Z,35.75
2018-10-17T06:40:55.324Z,37.25
2018-10-17T06:41:58.037Z,27.25
2018-10-17T06:43:03.734Z,29.00
2018-10-17T06:44:06.985Z,33.00
2018-10-17T06:45:09.680Z,31.50
2018-10-17T06:46:12.898Z,35.25
2018-10-17T06:47:16.393Z,38.25
2018-10-17T06:48:19.033Z,38.50
2018-10-17T06:49:21.726Z,29.50
2018-10-17T06:50:24.392Z,36.25
2018-10-17T06:51:27.269Z,34.00
2018-10-17T06:52:30.459Z,36.75
2018-10-17T06:53:33.198Z,28.25
2018-10-17T06:54:37.678Z,32.25
2018-10-17T06:55:41.865Z,34.50
2018-10-17T06:56:46.237Z,30.50
2018-10-17T06:57:50.698Z,38.50
2018-10-17T06:58:54.226Z,33.75
2018-10-17T06:59:58.638Z,34.75
2018-10-17T07:01:04.767Z,40.50
2018-10-17T07:02:08.986Z,34.00
2018-10-17T07:03:12.739Z,31.00
2018-10-17T07:04:18.784Z,30.25
2018-10-17T07:05:24.602Z,35.50
2018-10-17T07:06:29.555Z,25.25
2018-10-17T07:07:32.683Z,26.75
2018-10-17T07:08:36.358Z,28.75
2018-10-17T07:09:39.069Z,28.75
2018-10-17T07:10:42.693Z,30.00
2018-10-17T07:11:46.217Z,34.50
2018-10-17T07:12:53.612Z,29.00
2018-10-17T07:13:57.833Z,32.50
2018-10-17T07:15:00.537Z,31.50
2018-10-17T07:16:03.394Z,28.00
2018-10-17T07:17:06.164Z,29.00
2018-10-17T07:18:10.680Z,28.75
2018-10-17T07:19:14.481Z,32.75
2018-10-17T07:20:17.517Z,32.25
2018-10-17T07:21:20.415Z,33.50
2018-10-17T07:22:24.583Z,31.50
2018-10-17T07:23:29.448Z,35.75
2018-10-17T07:24:33.305Z,35.00
2018-10-17T07:25:36.266Z,34.00
2018-10-17T07:26:39.122Z,36.00
2018-10-17T07:27:42.356Z,33.75
2018-10-17T07:28:45.241Z,36.50
2018-10-17T07:29:48.115Z,46.75
2018-10-17T07:30:56.684Z,43.00
2018-10-17T07:31:59.595Z,43.00
2018-10-17T07:33:02.464Z,41.00
2018-10-17T07:34:05.928Z,52.50
2018-10-17T07:35:09.365Z,39.75
2018-10-17T07:36:13.460Z,37.25
2018-10-17T07:37:21.766Z,42.25
2018-10-17T07:38:26.651Z,39.75
2018-10-17T07:39:29.722Z,37.00
2018-10-17T07:40:33.208Z,36.75
2018-10-17T07:42:46.969Z,37.50
2018-10-17T07:43:50.383Z,34.00
2018-10-17T07:44:55.355Z,33.25
2018-10-17T07:45:59.576Z,28.50
2018-10-17T07:47:02.612Z,35.00
2018-10-17T07:48:05.567Z,38.25
2018-10-17T07:49:08.437Z,37.75
2018-10-17T07:50:12.204Z,36.75
2018-10-17T07:51:15.135Z,34.75
2018-10-17T07:52:17.855Z,38.75
2018-10-17T07:53:20.984Z,37.75
2018-10-17T07:54:25.666Z,37.25
2018-10-17T07:55:29.052Z,39.50
2018-10-17T07:56:32.167Z,38.00
2018-10-17T07:57:35.017Z,36.25
2018-10-17T07:58:38.105Z,41.00
2018-10-17T07:59:41.869Z,34.75
2018-10-17T08:00:44.975Z,42.25
2018-10-17T08:01:47.934Z,44.50
2018-10-17T08:03:02.560Z,40.25
2018-10-17T08:04:06.399Z,38.25
2018-10-17T08:05:15.601Z,37.25
2018-10-17T08:06:18.430Z,37.50
2018-10-17T08:07:21.259Z,33.50
2018-10-17T08:08:24.561Z,34.75
2018-10-17T08:09:27.853Z,37.25
2018-10-17T08:10:30.751Z,35.75
2018-10-17T08:11:35.615Z,39.00
2018-10-17T08:12:38.368Z,36.50
2018-10-17T08:13:41.233Z,38.00
2018-10-17T08:14:44.284Z,44.75
2018-10-17T08:15:47.409Z,41.50
2018-10-17T08:16:50.160Z,43.75
2018-10-17T08:17:53.680Z,37.50
2018-10-17T08:18:56.561Z,42.50
2018-10-17T08:19:59.573Z,37.25
2018-10-17T08:21:02.915Z,38.75
2018-10-17T08:22:06.157Z,36.50
2018-10-17T08:23:09.365Z,35.25
2018-10-17T08:24:12.155Z,37.75
2018-10-17T08:25:14.892Z,39.50
2018-10-17T08:26:17.757Z,37.50
2018-10-17T08:27:20.510Z,41.50
2018-10-17T08:28:23.691Z,38.50
2018-10-17T08:29:26.675Z,42.50
2018-10-17T08:30:29.349Z,48.25
2018-10-17T08:31:32.036Z,44.25
2018-10-17T08:32:34.709Z,41.75
2018-10-17T08:33:37.393Z,40.75
2018-10-17T08:34:41.759Z,37.25
2018-10-17T08:35:47.534Z,39.25
2018-10-17T08:36:52.933Z,42.25
2018-10-17T08:37:57.684Z,40.50
2018-10-17T08:39:01.220Z,38.75
2018-10-17T08:40:04.501Z,36.75
2018-10-17T08:41:12.859Z,36.75
2018-10-17T08:42:17.502Z,34.25
2018-10-17T08:43:24.315Z,40.75
2018-10-17T08:44:29.625Z,37.75
2018-10-17T08:45:36.263Z,33.25
2018-10-17T08:46:42.206Z,38.25
2018-10-17T08:47:49.603Z,36.00
2018-10-17T08:48:53.663Z,39.50
2018-10-17T08:49:57.347Z,40.25
2018-10-17T08:51:02.850Z,41.00
2018-10-17T08:52:11.130Z,37.00
2018-10-17T08:53:22.714Z,36.75
2018-10-17T08:54:28.025Z,37.00
2018-10-17T08:55:31.535Z,36.50
2018-10-17T08:56:35.273Z,43.50
2018-10-17T08:57:47.272Z,38.75
2018-10-17T08:58:55.023Z,35.50
2018-10-17T09:00:01.798Z,36.25
2018-10-17T09:01:07.428Z,37.75
2018-10-17T09:02:10.261Z,38.25
2018-10-17T09:03:15.435Z,36.75
2018-10-17T09:04:21.136Z,35.50
2018-10-17T09:05:32.116Z,40.25
2018-10-17T09:06:35.509Z,33.00
2018-10-17T09:07:40.637Z,39.75
2018-10-17T09:08:43.429Z,36.00
2018-10-17T09:09:46.800Z,43.00
2018-10-17T09:10:49.594Z,41.00
2018-10-17T09:11:52.712Z,34.50
2018-10-17T09:12:59.537Z,39.50
2018-10-17T09:14:03.784Z,42.00
2018-10-17T09:15:06.572Z,40.25
2018-10-17T09:16:09.265Z,36.25
2018-10-17T09:17:13.927Z,37.25
2018-10-17T09:18:17.735Z,36.25
2018-10-17T09:19:21.482Z,34.25
2018-10-17T09:20:24.168Z,38.50
2018-10-17T09:21:27.073Z,33.75
2018-10-17T09:22:29.561Z,36.25
2018-10-17T09:23:32.356Z,34.50
2018-10-17T09:24:35.618Z,36.50
2018-10-17T09:25:38.460Z,31.50
2018-10-17T09:26:41.499Z,41.50
2018-10-17T09:27:44.225Z,37.25
2018-10-17T09:28:47.797Z,38.25
2018-10-17T09:29:51.730Z,38.75
2018-10-17T09:30:57.921Z,38.00
2018-10-17T09:32:00.809Z,32.25
2018-10-17T09:33:03.752Z,32.50
2018-10-17T09:34:06.574Z,40.50
2018-10-17T09:35:10.220Z,36.00
2018-10-17T09:36:16.215Z,34.50
2018-10-17T09:37:21.452Z,34.25
2018-10-17T09:38:24.286Z,31.75
2018-10-17T09:39:27.283Z,32.25
2018-10-17T09:40:30.594Z,31.75
2018-10-17T09:41:33.259Z,29.25
2018-10-17T09:42:36.073Z,30.25
2018-10-17T09:43:39.336Z,27.00
2018-10-17T09:44:43.504Z,29.75
2018-10-17T09:45:46.597Z,28.75
2018-10-17T09:46:49.523Z,33.00
2018-10-17T09:47:53.202Z,30.50
2018-10-17T09:48:55.989Z,28.75
2018-10-17T09:49:59.096Z,28.75
2018-10-17T09:51:02.231Z,31.25
2018-10-17T09:52:04.987Z,33.00
2018-10-17T09:53:07.825Z,28.50
2018-10-17T09:54:11.269Z,26.00
2018-10-17T09:55:16.539Z,25.75
2018-10-17T09:56:22.792Z,29.00
2018-10-17T09:57:26.319Z,27.50
2018-10-17T09:58:29.253Z,32.25
2018-10-17T09:59:36.555Z,27.25
2018-10-17T10:02:47.765Z,31.50
2018-10-17T10:03:58.473Z,30.25
2018-10-17T10:05:02.554Z,28.25
2018-10-17T10:06:07.903Z,35.25
2018-10-17T10:07:14.397Z,28.00
2018-10-17T10:08:22.308Z,31.00
2018-10-17T10:09:27.215Z,32.25
2018-10-17T10:10:31.900Z,24.00
2018-10-17T10:11:38.547Z,29.25
2018-10-17T10:12:43.114Z,28.75
2018-10-17T10:13:47.787Z,28.00
2018-10-17T10:14:53.533Z,27.25
2018-10-17T10:15:57.176Z,31.00
2018-10-17T10:17:05.757Z,28.25
2018-10-17T10:18:13.648Z,28.50
2018-10-17T10:19:17.795Z,27.50
2018-10-17T10:20:20.481Z,30.00
2018-10-17T10:21:23.261Z,29.50
2018-10-17T10:22:28.630Z,24.00
2018-10-17T10:23:34.455Z,21.50
2018-10-17T10:24:37.427Z,27.00
2018-10-17T10:25:40.850Z,28.75
2018-10-17T10:26:50.441Z,29.75
2018-10-17T10:27:53.621Z,22.75
2018-10-17T10:29:00.242Z,26.50
2018-10-17T10:30:04.750Z,23.25
2018-10-17T10:43:10.067Z,20.00
2018-10-17T10:44:13.322Z,16.50
2018-10-17T10:45:16.176Z,17.00
2018-10-17T10:46:18.972Z,19.50
2018-10-17T10:47:24.009Z,19.25
2018-10-17T10:48:27.546Z,17.00
2018-10-17T10:49:31.449Z,19.25
2018-10-17T10:50:34.488Z,18.50
2018-10-17T10:51:38.405Z,22.75
2018-10-17T10:52:41.484Z,19.75
2018-10-17T10:53:48.045Z,19.50
2018-10-17T10:54:51.581Z,21.00
2018-10-17T10:55:54.447Z,21.00
2018-10-17T10:56:57.167Z,16.25
2018-10-17T10:58:01.702Z,19.50
2018-10-17T10:59:06.628Z,18.50
2018-10-17T11:00:10.975Z,18.25
2018-10-17T11:01:14.100Z,21.50
2018-10-17T11:02:16.966Z,15.00
2018-10-17T11:03:20.550Z,18.50
2018-10-17T11:04:24.487Z,23.75
2018-10-17T11:05:28.445Z,20.25
2018-10-17T11:06:32.822Z,30.25
2018-10-17T11:07:36.000Z,16.25
2018-10-17T11:08:39.676Z,18.25
2018-10-17T11:09:42.511Z,18.25
2018-10-17T11:10:45.190Z,15.75
2018-10-17T11:11:47.966Z,18.00
2018-10-17T11:12:51.435Z,17.75
2018-10-17T11:13:56.172Z,18.00
2018-10-17T11:15:01.829Z,14.00
2018-10-17T11:16:04.647Z,16.00
2018-10-17T11:17:10.351Z,15.00
2018-10-17T11:18:13.786Z,15.50
2018-10-17T11:19:17.088Z,14.00
2018-10-17T11:20:21.257Z,15.50
2018-10-17T11:21:23.931Z,13.25
2018-10-17T11:22:27.586Z,13.00
2018-10-17T11:24:39.726Z,16.25
2018-10-17T11:25:43.224Z,15.00
2018-10-17T11:26:48.805Z,13.75
2018-10-17T11:27:52.357Z,15.75
2018-10-17T11:28:56.027Z,14.50
2018-10-17T11:29:58.815Z,13.25
2018-10-17T11:31:02.364Z,13.25
2018-10-17T11:32:05.326Z,16.00
2018-10-17T11:33:08.985Z,13.50
2018-10-17T11:34:12.358Z,15.75
2018-10-17T11:35:15.689Z,16.50
2018-10-17T11:36:18.395Z,14.25
2018-10-17T11:37:21.722Z,16.75
2018-10-17T11:38:24.868Z,14.25
2018-10-17T11:39:27.985Z,16.00
2018-10-17T11:40:32.111Z,17.50
2018-10-17T11:41:38.537Z,16.00
2018-10-17T11:42:42.379Z,15.00
2018-10-17T11:43:45.065Z,14.75
2018-10-17T11:44:47.791Z,16.75
2018-10-17T11:45:52.380Z,16.25
2018-10-17T11:46:55.485Z,15.00
2018-10-17T11:47:59.757Z,15.75
2018-10-17T11:49:02.821Z,14.25
2018-10-17T11:50:05.537Z,17.00
2018-10-17T11:51:08.288Z,14.00
2018-10-17T11:52:11.455Z,15.00
2018-10-17T11:53:14.475Z,14.25
2018-10-17T11:54:17.341Z,15.75
2018-10-17T11:55:21.903Z,14.75
2018-10-17T11:56:25.209Z,14.75
2018-10-17T11:57:28.276Z,15.75
2018-10-17T11:58:31.423Z,15.50
2018-10-17T11:59:34.961Z,15.00
2018-10-17T12:00:37.803Z,15.00
2018-10-17T12:01:40.662Z,15.25
2018-10-17T12:02:43.408Z,16.50
2018-10-17T12:03:46.699Z,15.75
2018-10-17T12:04:51.749Z,12.75
2018-10-17T12:05:55.479Z,14.50
2018-10-17T12:06:59.362Z,15.00
2018-10-17T12:08:03.333Z,12.75
2018-10-17T12:09:06.350Z,15.75
2018-10-17T12:10:09.416Z,14.25
2018-10-17T12:11:12.780Z,15.00
2018-10-17T12:13:34.555Z,15.50
2018-10-17T12:14:37.465Z,17.00
2018-10-17T12:15:42.919Z,14.00
2018-10-17T12:16:45.996Z,19.50
2018-10-17T12:17:48.766Z,14.50
2018-10-17T12:18:51.527Z,18.00
2018-10-17T12:19:54.219Z,16.25
2018-10-17T12:20:57.018Z,16.00
2018-10-17T12:21:59.675Z,16.00
2018-10-17T12:23:03.453Z,14.00
2018-10-17T12:24:06.153Z,16.75
2018-10-17T12:25:10.958Z,15.00
2018-10-17T12:26:14.505Z,16.50
2018-10-17T12:27:19.764Z,15.00
2018-10-17T12:28:23.267Z,14.25
2018-10-17T12:29:26.632Z,14.75
2018-10-17T12:30:29.978Z,17.25
2018-10-17T12:31:32.746Z,18.50
2018-10-17T12:32:36.899Z,15.50
2018-10-17T12:33:39.581Z,17.75
2018-10-17T12:34:42.989Z,16.75
2018-10-17T12:35:46.100Z,12.75
2018-10-17T12:36:49.266Z,16.25
2018-10-17T12:37:52.763Z,14.50
2018-10-17T12:38:55.563Z,15.75
2018-10-17T12:39:58.396Z,16.00
2018-10-17T12:41:02.100Z,16.25
2018-10-17T12:42:05.416Z,12.75
2018-10-17T12:43:09.090Z,13.50
2018-10-17T12:44:11.913Z,15.75
2018-10-17T12:45:14.686Z,17.25
2018-10-17T12:46:17.494Z,16.50
2018-10-17T12:47:20.199Z,15.50
2018-10-17T12:48:25.311Z,16.25
2018-10-17T12:49:28.818Z,15.50
2018-10-17T12:50:32.199Z,19.00
2018-10-17T12:51:35.061Z,13.75
2018-10-17T12:52:37.845Z,17.00
2018-10-17T12:53:40.613Z,17.25
2018-10-17T12:54:43.955Z,15.00
2018-10-17T12:55:46.708Z,17.50
2018-10-17T12:56:49.590Z,17.00
2018-10-17T12:57:53.384Z,18.00
2018-10-17T12:58:56.809Z,17.50
2018-10-17T13:01:16.095Z,19.00
2018-10-17T13:02:18.808Z,14.00
2018-10-17T13:03:24.256Z,15.25
2018-10-17T13:04:27.664Z,15.25
2018-10-17T13:05:30.536Z,16.25
2018-10-17T13:06:33.747Z,15.25
2018-10-17T13:07:36.855Z,14.00
2018-10-17T13:08:39.683Z,14.00
2018-10-17T13:09:45.665Z,15.00
2018-10-17T13:10:49.003Z,16.00
2018-10-17T13:11:52.278Z,13.75
2018-10-17T13:12:55.679Z,17.75
2018-10-17T13:13:59.389Z,13.50
2018-10-17T13:15:02.262Z,16.00
2018-10-17T13:16:05.619Z,15.00
2018-10-17T13:17:10.184Z,14.75
2018-10-17T13:18:13.406Z,15.75
2018-10-17T13:19:16.600Z,16.75
2018-10-17T13:20:19.296Z,13.75
2018-10-17T13:21:22.037Z,15.00
2018-10-17T13:22:24.780Z,16.25
2018-10-17T13:23:27.583Z,17.25
2018-10-17T13:24:31.996Z,17.00
2018-10-17T13:25:34.997Z,14.25
2018-10-17T13:26:41.329Z,16.75
2018-10-17T13:27:44.331Z,14.75
2018-10-17T13:28:47.767Z,15.00
2018-10-17T13:29:50.460Z,15.25
2018-10-17T13:30:53.246Z,14.50
2018-10-17T13:31:56.271Z,20.00
2018-10-17T13:33:00.679Z,17.00
2018-10-17T13:34:03.488Z,16.00
2018-10-17T13:35:07.412Z,14.00
2018-10-17T13:36:10.106Z,16.00
2018-10-17T13:37:12.973Z,17.25
2018-10-17T13:38:16.819Z,19.25
2018-10-17T13:39:21.274Z,17.75
2018-10-17T13:40:26.232Z,17.25
2018-10-17T13:41:28.930Z,15.00
2018-10-17T13:42:32.590Z,15.75
2018-10-17T13:43:35.316Z,16.50
2018-10-17T13:44:38.391Z,16.00
2018-10-17T13:45:42.626Z,16.00
2018-10-17T13:46:46.542Z,17.50
2018-10-17T13:47:49.284Z,19.75
2018-10-17T13:48:52.817Z,15.75
2018-10-17T13:49:58.001Z,16.00
2018-10-17T13:51:02.357Z,16.75
2018-10-17T13:52:13.793Z,17.25
2018-10-17T13:53:21.494Z,17.00
2018-10-17T13:54:25.439Z,14.75
2018-10-17T13:55:29.678Z,15.75
2018-10-17T13:56:34.648Z,16.75
2018-10-17T13:57:39.821Z,16.50
2018-10-17T13:58:44.762Z,16.25
2018-10-17T13:59:48.769Z,16.00
2018-10-17T14:00:56.724Z,24.25
2018-10-17T14:02:01.892Z,18.75
2018-10-17T14:03:06.304Z,16.25
2018-10-17T14:04:09.678Z,14.50
2018-10-17T14:05:12.786Z,18.00
2018-10-17T14:06:17.083Z,15.25
2018-10-17T14:07:20.376Z,19.75
2018-10-17T14:08:23.407Z,16.50
2018-10-17T14:09:26.183Z,14.75
2018-10-17T14:10:29.369Z,16.25
2018-10-17T14:11:35.701Z,15.00